createdAt,value
2022-08-14T00:02:19.074Z,100.00
2022-08-14T00:04:47.678Z,100.00
2022-08-14T00:07:16.346Z,100.00
2022-08-14T00:10:02.518Z,100.00
2022-08-14T00:12:39.128Z,100.00
2022-08-14T00:15:21.936Z,100.00
2022-08-14T00:17:53.629Z,100.00
2022-08-14T00:20:35.842Z,100.00
2022-08-14T00:23:16.641Z,100.00
2022-08-14T00:25:54.095Z,100.00
2022-08-14T00:28:36.917Z,100.00
2022-08-14T00:31:09.600Z,100.00
2022-08-14T00:33:51.468Z,100.00
2022-08-14T00:36:36.387Z,100.00
2022-08-14T00:39:17.969Z,100.00
2022-08-14T00:41:47.541Z,100.00
2022-08-14T00:44:26.676Z,100.00
2022-08-14T00:47:03.862Z,100.00
2022-08-14T00:49:37.847Z,100.00
2022-08-14T00:52:14.236Z,100.00
2022-08-14T00:54:53.082Z,100.00
2022-08-14T00:57:28.427Z,100.00
2022-08-14T00:59:58.477Z,100.00
2022-08-14T01:02:31.948Z,100.00
2022-08-14T01:05:02.915Z,100.00
2022-08-14T01:07:38.589Z,100.00
2022-08-14T01:10:16.891Z,100.00
2022-08-14T01:12:47.897Z,100.00
2022-08-14T01:15:31.775Z,100.00
2022-08-14T01:18:29.343Z,100.00
2022-08-14T01:21:07.198Z,100.00
2022-08-14T01:23:46.690Z,100.00
2022-08-14T01:26:23.527Z,100.00
2022-08-14T01:29:06.872Z,100.00
2022-08-14T01:31:42.687Z,100.00
2022-08-14T01:35:19.978Z,100.00
2022-08-14T01:37:03.105Z,100.00
2022-08-14T01:39:38.205Z,100.00
2022-08-14T01:42:07.124Z,100.00
2022-08-14T01:44:41.316Z,100.00
2022-08-14T01:47:21.840Z,100.00
2022-08-14T01:49:59.745Z,100.00
2022-08-14T01:52:58.760Z,100.00
2022-08-14T01:55:30.740Z,100.00
2022-08-14T01:58:18.107Z,100.00
2022-08-14T02:00:48.412Z,100.00
2022-08-14T02:03:17.966Z,100.00
2022-08-14T02:05:47.085Z,100.00
2022-08-14T02:08:16.031Z,100.00
2022-08-14T02:11:16.053Z,100.00
2022-08-14T02:13:50.558Z,100.00
2022-08-14T02:16:26.249Z,100.00
2022-08-14T02:18:56.858Z,100.00
2022-08-14T02:21:27.807Z,100.00
2022-08-14T02:23:57.533Z,100.00
2022-08-14T02:26:30.968Z,100.00
2022-08-14T02:29:03.449Z,100.00
2022-08-14T02:31:43.226Z,100.00
2022-08-14T02:34:22.162Z,100.00
2022-08-14T02:37:03.741Z,100.00
2022-08-14T02:39:37.673Z,100.00
2022-08-14T02:42:13.114Z,100.00
2022-08-14T02:44:49.418Z,100.00
2022-08-14T02:47:20.952Z,100.00
2022-08-14T02:49:54.799Z,100.00
2022-08-14T02:52:57.460Z,100.00
2022-08-14T02:55:20.099Z,100.00
2022-08-14T02:58:03.209Z,100.00
2022-08-14T03:00:39.689Z,100.00
2022-08-14T03:03:09.143Z,100.00
2022-08-14T03:05:41.136Z,100.00
2022-08-14T03:08:16.015Z,100.00
2022-08-14T03:10:49.242Z,100.00
2022-08-14T03:13:21.603Z,100.00
2022-08-14T03:15:56.085Z,100.00
2022-08-14T03:18:30.904Z,100.00
2022-08-14T03:21:02.557Z,100.00
2022-08-14T03:23:37.858Z,100.00
2022-08-14T03:26:13.135Z,100.00
2022-08-14T03:28:51.290Z,100.00
2022-08-14T03:31:26.019Z,100.00
2022-08-14T03:34:00.137Z,100.00
2022-08-14T03:37:37.816Z,100.00
2022-08-14T03:39:24.177Z,100.00
2022-08-14T03:41:59.807Z,100.00
2022-08-14T03:45:19.717Z,100.00
2022-08-14T03:47:21.044Z,100.00
2022-08-14T03:49:50.415Z,100.00
2022-08-14T03:52:55.573Z,100.00
2022-08-14T03:55:12.464Z,100.00
2022-08-14T03:57:41.539Z,100.00
2022-08-14T04:00:42.730Z,100.00
2022-08-14T04:03:04.880Z,100.00
2022-08-14T04:05:38.110Z,100.00
2022-08-14T04:08:29.293Z,100.00
2022-08-14T04:11:01.238Z,100.00
2022-08-14T04:13:31.862Z,100.00
2022-08-14T04:16:12.350Z,100.00
2022-08-14T04:18:42.483Z,100.00
2022-08-14T04:21:12.077Z,100.00
2022-08-14T04:23:40.918Z,100.00
2022-08-14T04:26:14.983Z,100.00
2022-08-14T04:29:08.054Z,100.00
2022-08-14T04:33:10.596Z,100.00
2022-08-14T04:34:33.979Z,100.00
2022-08-14T04:37:24.713Z,100.00
2022-08-14T04:40:13.218Z,100.00
2022-08-14T04:43:01.525Z,100.00
2022-08-14T04:45:37.431Z,100.00
2022-08-14T04:48:36.614Z,100.00
2022-08-14T04:51:06.765Z,100.00
2022-08-14T04:53:40.871Z,100.00
2022-08-14T04:56:31.099Z,100.00
2022-08-14T04:59:10.360Z,100.00
2022-08-14T05:01:48.714Z,100.00
2022-08-14T05:04:21.814Z,100.00
2022-08-14T05:06:54.275Z,100.00
2022-08-14T05:09:29.152Z,100.00
2022-08-14T05:13:10.701Z,100.00
2022-08-14T05:14:54.877Z,100.00
2022-08-14T05:17:32.116Z,100.00
2022-08-14T05:21:55.311Z,100.00
2022-08-14T05:23:03.687Z,100.00
2022-08-14T05:25:34.266Z,100.00
2022-08-14T05:28:12.526Z,100.00
2022-08-14T05:30:46.489Z,100.00
2022-08-14T05:33:16.378Z,100.00
2022-08-14T05:35:46.811Z,100.00
2022-08-14T05:38:31.330Z,100.00
2022-08-14T05:41:01.554Z,100.00
2022-08-14T05:43:40.994Z,100.00
2022-08-14T05:46:15.130Z,100.00
2022-08-14T05:48:44.171Z,100.00
2022-08-14T05:51:15.457Z,100.00
2022-08-14T05:53:59.984Z,100.00
2022-08-14T05:56:33.094Z,100.00
2022-08-14T05:59:07.386Z,100.00
2022-08-14T06:01:36.356Z,100.00
2022-08-14T06:04:05.464Z,100.00
2022-08-14T06:06:38.650Z,100.00
2022-08-14T06:09:09.907Z,100.00
2022-08-14T06:11:39.096Z,100.00
2022-08-14T06:14:20.606Z,100.00
2022-08-14T06:16:52.947Z,100.00
2022-08-14T06:19:23.248Z,100.00
2022-08-14T06:21:59.325Z,100.00
2022-08-14T06:24:30.777Z,100.00
2022-08-14T06:27:06.165Z,100.00
2022-08-14T06:29:38.764Z,100.00
2022-08-14T06:32:37.328Z,100.00
2022-08-14T06:35:02.140Z,100.00
2022-08-14T06:37:43.951Z,100.00
2022-08-14T06:40:25.715Z,100.00
2022-08-14T06:43:00.045Z,100.00
2022-08-14T06:45:29.587Z,100.00
2022-08-14T06:47:58.766Z,100.00
2022-08-14T06:50:30.204Z,100.00
2022-08-14T06:53:00.550Z,100.00
2022-08-14T06:55:29.422Z,100.00
2022-08-14T06:57:58.484Z,100.00
2022-08-14T07:00:31.087Z,100.00
2022-08-14T07:03:17.617Z,100.00
2022-08-14T07:05:55.529Z,93.91
2022-08-14T07:08:32.076Z,91.22
2022-08-14T07:11:04.132Z,94.72
2022-08-14T07:13:32.934Z,89.48
2022-08-14T07:16:05.501Z,87.18
2022-08-14T07:18:36.420Z,93.14
2022-08-14T07:21:07.313Z,100.00
2022-08-14T07:23:40.183Z,100.00
2022-08-14T07:26:13.705Z,100.00
2022-08-14T07:28:44.101Z,100.00
2022-08-14T07:31:13.875Z,100.00
2022-08-14T07:33:50.138Z,100.00
2022-08-14T07:36:27.480Z,97.20
2022-08-14T07:39:03.085Z,94.24
2022-08-14T07:41:42.409Z,82.07
2022-08-14T07:44:29.348Z,76.47
2022-08-14T07:47:00.881Z,68.84
2022-08-14T07:49:30.148Z,64.18
2022-08-14T07:52:00.167Z,61.21
2022-08-14T07:54:31.786Z,59.56
2022-08-14T07:57:06.263Z,62.21
2022-08-14T07:59:44.505Z,62.78
2022-08-14T08:02:20.368Z,64.95
2022-08-14T08:04:53.084Z,64.27
2022-08-14T08:07:23.957Z,66.50
2022-08-14T08:09:57.250Z,66.38
2022-08-14T08:12:31.129Z,62.50
2022-08-14T08:15:03.176Z,58.58
2022-08-14T08:17:42.766Z,56.08
2022-08-14T08:20:27.216Z,54.89
2022-08-14T08:23:00.636Z,49.34
2022-08-14T08:25:39.838Z,47.02
2022-08-14T08:28:25.113Z,45.68
2022-08-14T08:30:56.783Z,44.47
2022-08-14T08:33:32.093Z,43.64
2022-08-14T08:36:12.467Z,43.31
2022-08-14T08:39:17.303Z,42.44
2022-08-14T08:41:43.345Z,41.32
2022-08-14T08:44:31.146Z,44.53
2022-08-14T08:47:05.783Z,43.27
2022-08-14T08:49:43.207Z,42.21
2022-08-14T08:52:25.404Z,41.72
2022-08-14T08:55:01.116Z,43.33
2022-08-14T08:57:38.065Z,41.63
2022-08-14T09:00:24.195Z,38.61
2022-08-14T09:02:57.693Z,37.49
2022-08-14T09:05:27.492Z,37.89
2022-08-14T09:07:56.920Z,39.04
2022-08-14T09:10:27.072Z,42.34
2022-08-14T09:12:57.910Z,44.01
2022-08-14T09:15:42.560Z,41.09
2022-08-14T09:18:12.627Z,41.37
2022-08-14T09:20:51.352Z,39.34
2022-08-14T09:23:27.402Z,39.39
2022-08-14T09:26:05.103Z,40.50
2022-08-14T09:28:51.463Z,45.39
2022-08-14T09:31:21.507Z,49.00
2022-08-14T09:34:09.188Z,51.02
2022-08-14T09:37:05.101Z,45.52
2022-08-14T09:39:47.988Z,45.63
2022-08-14T09:42:33.218Z,43.79
2022-08-14T09:45:15.458Z,44.42
2022-08-14T09:47:49.080Z,41.33
2022-08-14T09:50:28.009Z,40.37
2022-08-14T09:52:59.621Z,41.87
2022-08-14T09:55:41.686Z,38.25
2022-08-14T09:58:20.080Z,40.94
2022-08-14T10:00:55.071Z,44.59
2022-08-14T10:03:34.267Z,43.17
2022-08-14T10:06:10.349Z,41.74
2022-08-14T10:08:45.385Z,44.28
2022-08-14T10:11:23.588Z,41.41
2022-08-14T10:13:55.983Z,39.31
2022-08-14T10:16:33.758Z,35.26
2022-08-14T10:19:09.644Z,34.56
2022-08-14T10:21:58.683Z,35.10
2022-08-14T10:24:36.688Z,36.49
2022-08-14T10:27:06.931Z,37.46
2022-08-14T10:29:38.531Z,38.76
2022-08-14T10:32:18.187Z,36.99
2022-08-14T10:35:06.897Z,35.21
2022-08-14T10:37:46.919Z,38.74
2022-08-14T10:40:43.495Z,40.57
2022-08-14T10:43:18.329Z,36.44
2022-08-14T10:45:59.859Z,34.54
2022-08-14T10:48:36.803Z,34.07
2022-08-14T10:51:08.485Z,35.49
2022-08-14T10:53:39.972Z,34.69
2022-08-14T10:56:22.074Z,33.97
2022-08-14T10:59:02.878Z,35.36
2022-08-14T11:01:40.823Z,38.16
2022-08-14T11:04:30.723Z,37.69
2022-08-14T11:06:59.841Z,35.79
2022-08-14T11:09:32.305Z,36.39
2022-08-14T11:12:35.078Z,37.77
2022-08-14T11:14:58.502Z,39.88
2022-08-14T11:17:32.179Z,41.81
2022-08-14T11:20:04.046Z,44.03
2022-08-14T11:23:03.081Z,42.67
2022-08-14T11:25:24.804Z,39.88
2022-08-14T11:28:11.036Z,36.49
2022-08-14T11:30:50.343Z,37.69
2022-08-14T11:33:24.526Z,40.42
2022-08-14T11:35:59.656Z,43.08
2022-08-14T11:38:29.324Z,43.29
2022-08-14T11:41:00.254Z,44.38
2022-08-14T11:43:30.702Z,46.44
2022-08-14T11:46:03.646Z,47.28
2022-08-14T11:49:03.551Z,48.73
2022-08-14T11:51:53.463Z,46.53
2022-08-14T11:54:34.395Z,43.19
2022-08-14T11:57:05.341Z,41.12
2022-08-14T11:59:34.272Z,40.51
2022-08-14T12:02:39.113Z,40.04
2022-08-14T12:05:03.967Z,41.71
2022-08-14T12:07:48.305Z,43.38
2022-08-14T12:10:26.938Z,44.00
2022-08-14T12:13:17.498Z,44.83
2022-08-14T12:15:51.462Z,47.78
2022-08-14T12:18:32.676Z,49.77
2022-08-14T12:21:15.728Z,50.04
2022-08-14T12:23:51.276Z,50.47
2022-08-14T12:26:40.150Z,51.45
2022-08-14T12:29:11.017Z,53.85
2022-08-14T12:31:44.729Z,53.33
2022-08-14T12:34:20.613Z,52.10
2022-08-14T12:37:04.233Z,53.80
2022-08-14T12:39:39.793Z,54.01
2022-08-14T12:42:11.846Z,55.35
2022-08-14T12:44:59.040Z,55.58
2022-08-14T12:47:32.555Z,55.85
2022-08-14T12:50:01.331Z,58.31
2022-08-14T12:52:45.326Z,58.73
2022-08-14T12:55:22.063Z,58.31
2022-08-14T12:57:55.299Z,57.46
2022-08-14T13:00:26.313Z,59.65
2022-08-14T13:02:56.898Z,59.08
2022-08-14T13:05:28.473Z,59.29
2022-08-14T13:07:59.266Z,61.13
2022-08-14T13:10:47.477Z,61.62
2022-08-14T13:13:22.096Z,60.24
2022-08-14T13:15:56.105Z,61.50
2022-08-14T13:18:28.026Z,60.57
2022-08-14T13:21:02.268Z,61.46
2022-08-14T13:23:36.443Z,60.01
2022-08-14T13:26:09.146Z,58.37
2022-08-14T13:29:02.031Z,58.29
2022-08-14T13:31:34.704Z,61.13
2022-08-14T13:34:04.474Z,60.14
2022-08-14T13:36:51.748Z,60.54
2022-08-14T13:39:24.640Z,60.58
2022-08-14T13:41:55.605Z,63.60
2022-08-14T13:44:28.837Z,66.02
2022-08-14T13:46:58.765Z,65.78
2022-08-14T13:49:29.163Z,65.44
2022-08-14T13:52:00.247Z,66.87
2022-08-14T13:54:32.885Z,68.44
2022-08-14T13:57:03.944Z,69.60
2022-08-14T13:59:37.372Z,69.48
2022-08-14T14:02:09.827Z,67.60
2022-08-14T14:04:42.197Z,68.06
2022-08-14T14:07:14.260Z,67.57
2022-08-14T14:09:52.998Z,68.93
2022-08-14T14:12:49.179Z,66.90
2022-08-14T14:15:17.721Z,69.24
2022-08-14T14:17:47.805Z,70.61
2022-08-14T14:20:34.581Z,68.79
2022-08-14T14:23:11.864Z,68.88
2022-08-14T14:25:48.458Z,69.48
2022-08-14T14:28:23.889Z,71.58
2022-08-14T14:30:57.271Z,73.10
2022-08-14T14:33:49.556Z,75.06
2022-08-14T14:36:21.876Z,76.22
2022-08-14T14:38:53.555Z,76.19
2022-08-14T14:41:23.751Z,76.16
2022-08-14T14:43:57.880Z,73.99
2022-08-14T14:46:36.755Z,74.47
2022-08-14T14:49:08.946Z,74.46
2022-08-14T14:51:43.430Z,78.58
2022-08-14T14:54:13.310Z,77.55
2022-08-14T14:56:52.256Z,76.13
2022-08-14T14:59:25.405Z,76.67
2022-08-14T15:02:00.689Z,78.95
2022-08-14T15:04:29.342Z,79.23
2022-08-14T15:06:57.895Z,77.56
2022-08-14T15:09:27.579Z,76.56
2022-08-14T15:11:57.807Z,77.39
2022-08-14T15:14:54.781Z,78.98
2022-08-14T15:17:17.283Z,79.98
2022-08-14T15:19:56.360Z,80.46
2022-08-14T15:22:29.055Z,83.60
2022-08-14T15:24:59.047Z,82.63
2022-08-14T15:27:29.478Z,84.31
2022-08-14T15:29:59.621Z,83.57
2022-08-14T15:32:29.217Z,82.07
2022-08-14T15:34:58.297Z,83.63
2022-08-14T15:37:32.626Z,83.88
2022-08-14T15:40:02.439Z,84.88
2022-08-14T15:42:38.101Z,85.35
2022-08-14T15:45:12.864Z,85.58
2022-08-14T15:47:43.378Z,84.47
2022-08-14T15:50:13.378Z,83.72
2022-08-14T15:52:45.032Z,86.49
2022-08-14T15:55:16.152Z,88.34
2022-08-14T15:58:02.128Z,88.47
2022-08-14T16:00:53.878Z,88.36
2022-08-14T16:03:27.597Z,87.18
2022-08-14T16:06:05.840Z,84.41
2022-08-14T16:08:40.151Z,89.28
2022-08-14T16:11:10.663Z,89.68
2022-08-14T16:13:43.488Z,87.52
2022-08-14T16:16:49.391Z,89.37
2022-08-14T16:19:09.943Z,90.83
2022-08-14T16:22:01.586Z,90.51
2022-08-14T16:25:02.207Z,90.47
2022-08-14T16:27:37.179Z,90.26
2022-08-14T16:30:24.803Z,92.48
2022-08-14T16:32:57.051Z,94.13
2022-08-14T16:35:42.697Z,93.04
2022-08-14T16:38:19.728Z,91.89
2022-08-14T16:41:23.255Z,93.51
2022-08-14T16:43:59.414Z,93.90
2022-08-14T16:46:31.424Z,93.67
2022-08-14T16:49:03.214Z,95.87
2022-08-14T16:51:36.497Z,96.98
2022-08-14T16:54:21.099Z,98.57
2022-08-14T16:57:13.810Z,96.58
2022-08-14T16:59:57.280Z,100.00
2022-08-14T17:02:36.672Z,100.00
2022-08-14T17:05:22.060Z,100.00
2022-08-14T17:08:31.455Z,100.00
2022-08-14T17:11:10.558Z,100.00
2022-08-14T17:13:59.738Z,100.00
2022-08-14T17:16:35.658Z,100.00
2022-08-14T17:19:05.730Z,100.00
2022-08-14T17:21:41.915Z,100.00
2022-08-14T17:24:57.755Z,100.00
2022-08-14T17:27:03.661Z,100.00
2022-08-14T17:29:34.573Z,100.00
2022-08-14T17:32:21.872Z,100.00
2022-08-14T17:34:57.697Z,100.00
2022-08-14T17:37:37.776Z,100.00
2022-08-14T17:40:15.934Z,100.00
2022-08-14T17:42:55.705Z,100.00
2022-08-14T17:45:46.803Z,100.00
2022-08-14T17:49:10.835Z,99.81
2022-08-14T17:51:23.752Z,100.00
2022-08-14T17:54:02.323Z,100.00
2022-08-14T17:56:38.730Z,100.00
2022-08-14T17:59:08.675Z,100.00
2022-08-14T18:01:46.448Z,100.00
2022-08-14T18:04:24.467Z,100.00
2022-08-14T18:07:16.774Z,100.00
2022-08-14T18:09:57.610Z,100.00
2022-08-14T18:12:36.935Z,100.00
2022-08-14T18:15:14.459Z,100.00
2022-08-14T18:17:52.742Z,100.00
2022-08-14T18:21:40.969Z,100.00
2022-08-14T18:23:14.323Z,100.00
2022-08-14T18:25:51.618Z,100.00
2022-08-14T18:28:51.967Z,100.00
2022-08-14T18:31:43.375Z,100.00
2022-08-14T18:34:31.741Z,100.00
2022-08-14T18:37:16.567Z,100.00
2022-08-14T18:39:51.688Z,100.00
2022-08-14T18:42:47.091Z,100.00
2022-08-14T18:45:18.915Z,100.00
2022-08-14T18:48:33.228Z,100.00
2022-08-14T18:51:15.125Z,100.00
2022-08-14T18:53:57.171Z,100.00
2022-08-14T18:56:58.407Z,100.00
2022-08-14T18:59:37.536Z,100.00
2022-08-14T19:02:43.421Z,100.00
2022-08-14T19:05:14.281Z,100.00
2022-08-14T19:07:48.162Z,100.00
2022-08-14T19:10:31.837Z,100.00
2022-08-14T19:13:11.927Z,100.00
2022-08-14T19:15:44.745Z,100.00
2022-08-14T19:18:26.194Z,100.00
2022-08-14T19:20:59.166Z,100.00
2022-08-14T19:23:42.095Z,100.00
2022-08-14T19:26:36.774Z,100.00
2022-08-14T19:29:21.136Z,100.00
2022-08-14T19:31:56.253Z,100.00
2022-08-14T19:34:47.958Z,100.00
2022-08-14T19:37:52.475Z,100.00
2022-08-14T19:40:33.961Z,100.00
2022-08-14T19:43:06.662Z,100.00
2022-08-14T19:45:38.432Z,100.00
2022-08-14T19:48:15.757Z,100.00
2022-08-14T19:50:47.082Z,100.00
2022-08-14T19:53:18.468Z,100.00
2022-08-14T19:55:59.644Z,100.00
2022-08-14T19:58:54.784Z,100.00
2022-08-14T20:01:37.283Z,100.00
2022-08-14T20:04:45.017Z,100.00
2022-08-14T20:07:01.594Z,100.00
2022-08-14T20:11:04.631Z,100.00
2022-08-14T20:12:36.618Z,100.00
2022-08-14T20:15:26.912Z,100.00
2022-08-14T20:18:46.016Z,100.00
2022-08-14T20:21:05.753Z,100.00
2022-08-14T20:23:37.956Z,100.00
2022-08-14T20:26:30.738Z,100.00
2022-08-14T20:29:04.588Z,100.00
2022-08-14T20:31:38.342Z,100.00
2022-08-14T20:34:24.615Z,100.00
2022-08-14T20:37:09.802Z,100.00
2022-08-14T20:39:45.122Z,100.00
2022-08-14T20:42:43.471Z,100.00
2022-08-14T20:45:23.660Z,100.00
2022-08-14T20:47:58.610Z,100.00
2022-08-14T20:50:32.005Z,100.00
2022-08-14T20:53:05.694Z,100.00
2022-08-14T20:55:41.571Z,100.00
2022-08-14T21:01:33.105Z,100.00
2022-08-14T21:04:12.033Z,100.00
2022-08-14T21:07:22.878Z,100.00
2022-08-14T21:10:03.039Z,100.00
2022-08-14T21:12:33.537Z,100.00
2022-08-14T21:15:03.974Z,100.00
2022-08-14T21:17:37.492Z,100.00
2022-08-14T21:20:25.626Z,100.00
2022-08-14T21:23:00.346Z,100.00
2022-08-14T21:25:31.848Z,100.00
2022-08-14T21:28:04.239Z,100.00
2022-08-14T21:30:51.537Z,100.00
2022-08-14T21:33:23.921Z,100.00
2022-08-14T21:35:55.038Z,100.00
2022-08-14T21:38:34.251Z,100.00
2022-08-14T21:41:43.066Z,100.00
2022-08-14T21:44:17.401Z,100.00
2022-08-14T21:46:49.791Z,100.00
2022-08-14T21:49:23.589Z,100.00
2022-08-14T21:51:58.831Z,100.00
2022-08-14T21:54:50.169Z,100.00
2022-08-14T21:57:55.883Z,100.00
2022-08-14T22:00:35.346Z,100.00
2022-08-14T22:03:04.527Z,100.00
2022-08-14T22:05:34.851Z,100.00
2022-08-14T22:08:07.522Z,100.00
2022-08-14T22:10:43.002Z,100.00
2022-08-14T22:13:17.289Z,100.00
2022-08-14T22:15:50.067Z,100.00
2022-08-14T22:18:21.007Z,100.00
2022-08-14T22:20:56.474Z,100.00
2022-08-14T22:23:27.172Z,100.00
2022-08-14T22:25:56.757Z,100.00
2022-08-14T22:28:32.484Z,100.00
2022-08-14T22:31:03.793Z,100.00
2022-08-14T22:33:40.363Z,100.00
2022-08-14T22:36:34.179Z,100.00
2022-08-14T22:39:10.965Z,100.00
2022-08-14T22:41:42.741Z,100.00
2022-08-14T22:44:15.201Z,100.00
2022-08-14T22:46:45.228Z,100.00
2022-08-14T22:49:15.467Z,100.00
2022-08-14T22:52:32.895Z,100.00
2022-08-14T22:54:58.737Z,100.00
2022-08-14T22:57:37.801Z,100.00
2022-08-14T23:00:16.578Z,100.00
2022-08-14T23:02:46.806Z,100.00
2022-08-14T23:05:16.470Z,100.00
2022-08-14T23:09:02.232Z,100.00
2022-08-14T23:10:55.692Z,100.00
2022-08-14T23:13:25.072Z,100.00
2022-08-14T23:15:55.348Z,100.00
2022-08-14T23:18:25.383Z,100.00
2022-08-14T23:20:59.225Z,100.00
2022-08-14T23:23:29.954Z,100.00
2022-08-14T23:26:46.883Z,100.00
2022-08-14T23:28:57.157Z,100.00
2022-08-14T23:31:36.183Z,100.00
2022-08-14T23:34:07.558Z,100.00
2022-08-14T23:36:52.726Z,100.00
2022-08-14T23:39:29.563Z,100.00
2022-08-14T23:42:04.563Z,100.00
2022-08-14T23:44:37.083Z,100.00
2022-08-14T23:47:11.755Z,100.00
2022-08-14T23:50:00.877Z,100.00
2022-08-14T23:53:06.218Z,100.00
2022-08-14T23:55:29.672Z,100.00
2022-08-14T23:57:59.279Z,100.00
